Time;durP1;ratioP1;P1;durP2;ratioP2;P2;SDS_P1;SDS_P2;PMS_P1;PMS_P2;Temp;Humidity;BMP_temperature;BMP_pressure;BME280_temperature;BME280_humidity;BME280_pressure;Samples;Min_cycle;Max_cycle;Signal;HPM_P1;HPM_P2
2021/09/19 00:02:04;;;;;;;6.03;5.53;;;15.10;99.90;;;;;;4987641;28;20785;-66
2021/09/19 00:04:30;;;;;;;5.90;5.50;;;15.10;99.90;;;;;;4985631;28;20100;-66
2021/09/19 00:06:55;;;;;;;5.60;5.10;;;15.10;99.90;;;;;;4986431;28;20137;-66
2021/09/19 00:09:22;;;;;;;5.88;5.43;;;15.10;99.90;;;;;;4985665;28;20496;-66
2021/09/19 00:11:47;;;;;;;5.63;5.22;;;15.10;99.90;;;;;;4986903;28;21547;-67
2021/09/19 00:14:14;;;;;;;5.70;5.13;;;15.00;99.90;;;;;;4983620;28;20109;-67
2021/09/19 00:16:40;;;;;;;5.50;5.00;;;15.10;99.90;;;;;;4986237;28;20046;-67
2021/09/19 00:19:06;;;;;;;5.55;4.93;;;15.10;99.90;;;;;;4985465;28;20030;-67
2021/09/19 00:21:32;;;;;;;6.97;4.90;;;15.10;99.90;;;;;;4988942;28;20037;-67
2021/09/19 00:23:57;;;;;;;5.22;4.53;;;15.20;99.90;;;;;;4986826;28;20042;-67
2021/09/19 00:26:23;;;;;;;4.68;4.10;;;15.10;99.90;;;;;;4985867;28;20559;-67
2021/09/19 00:28:48;;;;;;;4.82;4.43;;;15.10;99.90;;;;;;4985790;28;20054;-67
2021/09/19 00:31:14;;;;;;;4.05;3.75;;;15.10;99.90;;;;;;4986709;28;20042;-67
2021/09/19 00:33:40;;;;;;;3.90;3.60;;;15.10;99.90;;;;;;4984157;28;20045;-66
2021/09/19 00:36:05;;;;;;;4.10;3.78;;;15.10;99.90;;;;;;4986992;28;20039;-66
2021/09/19 00:38:31;;;;;;;3.38;3.05;;;15.10;99.90;;;;;;4986868;28;20039;-66
2021/09/19 00:40:56;;;;;;;3.20;3.00;;;15.20;99.90;;;;;;4985977;28;20038;-67
2021/09/19 00:43:22;;;;;;;3.70;3.30;;;15.20;99.90;;;;;;4984608;28;20044;-66
2021/09/19 00:45:48;;;;;;;3.20;2.90;;;15.10;99.90;;;;;;4985664;28;20057;-67
2021/09/19 00:48:14;;;;;;;3.33;3.03;;;15.20;99.90;;;;;;4987742;28;20034;-67
2021/09/19 00:50:39;;;;;;;3.97;3.05;;;15.10;99.90;;;;;;4986242;28;20628;-67
2021/09/19 00:53:06;;;;;;;3.45;2.65;;;15.20;99.90;;;;;;4985773;28;20519;-66
2021/09/19 00:55:32;;;;;;;2.85;2.50;;;15.10;99.90;;;;;;4983340;28;20097;-67
2021/09/19 00:57:58;;;;;;;3.80;2.13;;;15.10;99.90;;;;;;4986206;28;20042;-66
2021/09/19 01:00:29;;;;;;;4.30;2.25;;;15.10;99.90;;;;;;4986288;28;20038;-66
2021/09/19 01:02:55;;;;;;;2.20;2.00;;;15.10;99.90;;;;;;4986547;28;20046;-66
2021/09/19 01:05:22;;;;;;;2.60;2.00;;;15.10;99.90;;;;;;4985966;28;20038;-66
2021/09/19 01:07:49;;;;;;;2.65;1.85;;;15.10;99.90;;;;;;4986775;28;20034;-66
2021/09/19 01:10:17;;;;;;;2.60;1.52;;;15.10;99.90;;;;;;4984568;28;20054;-66
2021/09/19 01:12:43;;;;;;;2.40;1.48;;;15.10;99.90;;;;;;4986035;28;20387;-67
2021/09/19 01:15:10;;;;;;;1.52;1.30;;;15.10;99.90;;;;;;4983313;28;20138;-67
2021/09/19 01:17:40;;;;;;;4.10;1.20;;;15.10;99.90;;;;;;4985586;28;20133;-67
2021/09/19 01:20:14;;;;;;;1.45;0.95;;;15.00;99.90;;;;;;4983678;28;20042;-66
2021/09/19 01:22:46;;;;;;;2.90;1.20;;;15.10;99.90;;;;;;5000743;28;20057;-67
2021/09/19 01:25:15;;;;;;;2.00;1.20;;;15.00;99.90;;;;;;4982956;28;20038;-66
2021/09/19 01:27:44;;;;;;;3.05;1.17;;;15.00;99.90;;;;;;4986858;28;20490;-66
2021/09/19 01:30:10;;;;;;;2.78;1.30;;;15.00;99.90;;;;;;4984535;28;20039;-67
2021/09/19 01:32:39;;;;;;;1.58;1.05;;;15.10;99.90;;;;;;4985363;28;20652;-67
2021/09/19 01:35:05;;;;;;;1.88;1.20;;;15.00;99.90;;;;;;4985420;28;20674;-67
2021/09/19 01:37:31;;;;;;;2.28;1.00;;;15.00;99.90;;;;;;4983960;28;20038;-67
2021/09/19 01:39:56;;;;;;;1.58;1.00;;;15.00;99.90;;;;;;4984803;28;20034;-67
2021/09/19 01:42:25;;;;;;;1.33;0.82;;;15.00;99.90;;;;;;4985733;28;20566;-67
2021/09/19 01:44:50;;;;;;;2.38;0.60;;;15.00;99.90;;;;;;4983438;28;20050;-67
2021/09/19 01:47:16;;;;;;;1.10;0.80;;;15.00;99.90;;;;;;4984990;28;20038;-67
2021/09/19 01:49:46;;;;;;;2.13;0.95;;;15.00;99.90;;;;;;4985877;28;20046;-67
2021/09/19 01:52:13;;;;;;;2.03;0.90;;;15.00;99.90;;;;;;4981911;28;20159;-67
2021/09/19 01:54:38;;;;;;;1.23;1.13;;;15.00;99.90;;;;;;4984407;28;20038;-67
2021/09/19 01:57:06;;;;;;;1.65;0.70;;;15.00;99.90;;;;;;4985549;28;20065;-67
2021/09/19 01:59:33;;;;;;;2.55;1.25;;;14.90;99.90;;;;;;4986591;28;20132;-67
2021/09/19 02:01:58;;;;;;;3.65;1.00;;;15.00;99.90;;;;;;4984593;28;20483;-67
2021/09/19 02:04:24;;;;;;;1.75;0.77;;;15.00;99.90;;;;;;4985929;28;20053;-67
2021/09/19 02:06:50;;;;;;;1.75;1.10;;;14.90;99.90;;;;;;4984860;28;20034;-67
2021/09/19 02:09:15;;;;;;;2.33;1.00;;;15.00;99.90;;;;;;4984573;28;20089;-67
2021/09/19 02:11:41;;;;;;;2.15;1.10;;;14.90;99.90;;;;;;4984620;28;20076;-66
2021/09/19 02:14:06;;;;;;;1.40;1.00;;;14.90;99.90;;;;;;4985293;28;20046;-66
2021/09/19 02:16:32;;;;;;;4.07;1.30;;;14.90;99.90;;;;;;4983897;28;20038;-66
2021/09/19 02:18:58;;;;;;;2.65;1.15;;;14.90;99.90;;;;;;4984256;28;20053;-66
2021/09/19 02:21:24;;;;;;;1.77;1.33;;;14.90;99.90;;;;;;4985139;28;20605;-66
2021/09/19 02:23:50;;;;;;;1.80;1.20;;;14.90;99.90;;;;;;4984168;28;20130;-67
2021/09/19 02:26:15;;;;;;;2.83;1.20;;;15.00;99.90;;;;;;4986285;28;20051;-67
2021/09/19 02:28:41;;;;;;;2.88;1.83;;;15.00;99.90;;;;;;4984468;28;20054;-67
2021/09/19 02:31:06;;;;;;;2.10;1.67;;;14.90;99.90;;;;;;4987505;28;20110;-67
2021/09/19 02:33:34;;;;;;;4.60;1.38;;;14.90;99.90;;;;;;4989347;28;20046;-67
2021/09/19 02:36:00;;;;;;;2.38;1.45;;;14.90;99.90;;;;;;4988031;28;20042;-67
2021/09/19 02:38:26;;;;;;;2.45;1.70;;;14.90;99.90;;;;;;4989146;28;20034;-67
2021/09/19 02:40:52;;;;;;;4.50;2.03;;;14.90;99.90;;;;;;4984917;28;20042;-67
2021/09/19 02:43:19;;;;;;;1.90;1.50;;;14.80;99.90;;;;;;4987733;28;20085;-67
2021/09/19 02:45:46;;;;;;;1.75;1.65;;;14.90;99.90;;;;;;4986309;28;20046;-66
2021/09/19 02:48:11;;;;;;;2.58;1.40;;;14.80;99.90;;;;;;4986968;28;20046;-66
2021/09/19 02:50:37;;;;;;;2.70;1.75;;;14.90;99.90;;;;;;4987353;28;20334;-67
2021/09/19 02:53:03;;;;;;;1.83;1.70;;;14.90;99.90;;;;;;4987723;28;20065;-67
2021/09/19 02:55:28;;;;;;;4.95;2.10;;;14.90;99.90;;;;;;4987813;28;20042;-67
2021/09/19 02:57:54;;;;;;;4.70;2.33;;;14.90;99.90;;;;;;4987675;28;20097;-67
2021/09/19 03:00:21;;;;;;;2.78;2.05;;;14.80;99.90;;;;;;4988227;28;20034;-67
2021/09/19 03:02:48;;;;;;;5.25;2.63;;;14.90;99.90;;;;;;4982750;28;20093;-67
2021/09/19 03:05:14;;;;;;;2.50;1.83;;;14.90;99.90;;;;;;4987316;28;20030;-67
2021/09/19 03:07:40;;;;;;;2.40;2.15;;;14.90;99.90;;;;;;4985996;28;20107;-67
2021/09/19 03:10:07;;;;;;;3.17;1.92;;;14.90;99.90;;;;;;4985606;28;20077;-67
2021/09/19 03:12:33;;;;;;;3.28;2.28;;;14.90;99.90;;;;;;4986292;28;20536;-67
2021/09/19 03:14:59;;;;;;;3.03;2.22;;;14.80;99.90;;;;;;4985049;28;20066;-66
2021/09/19 03:17:24;;;;;;;4.68;2.70;;;14.80;99.90;;;;;;4986680;28;20489;-66
2021/09/19 03:19:50;;;;;;;3.13;2.58;;;14.80;99.90;;;;;;4986865;28;20042;-67
2021/09/19 03:22:16;;;;;;;5.50;2.75;;;14.80;99.90;;;;;;4985950;28;20116;-67
2021/09/19 03:24:41;;;;;;;3.75;2.13;;;14.80;99.90;;;;;;4986356;28;20451;-67
2021/09/19 03:27:07;;;;;;;4.75;2.40;;;14.80;99.90;;;;;;4988057;28;20339;-67
2021/09/19 03:29:32;;;;;;;4.32;2.50;;;14.80;99.90;;;;;;4987696;28;20038;-67
2021/09/19 03:31:58;;;;;;;4.90;2.85;;;14.80;99.90;;;;;;4988183;28;20030;-67
2021/09/19 03:34:24;;;;;;;3.47;2.75;;;14.80;99.90;;;;;;4987918;28;20481;-67
2021/09/19 03:36:50;;;;;;;6.38;3.13;;;14.80;99.90;;;;;;4987244;28;20440;-67
2021/09/19 03:39:16;;;;;;;5.55;3.45;;;14.90;99.90;;;;;;4988118;28;20037;-67
2021/09/19 03:41:42;;;;;;;5.10;3.40;;;14.80;99.90;;;;;;4987678;28;20101;-67
2021/09/19 03:44:10;;;;;;;7.47;3.10;;;14.80;99.90;;;;;;4983477;28;20054;-67
2021/09/19 03:46:35;;;;;;;4.22;3.25;;;14.90;99.90;;;;;;4986988;28;20046;-67
2021/09/19 03:49:01;;;;;;;4.18;3.22;;;14.70;99.90;;;;;;4985522;28;20115;-67
2021/09/19 03:51:26;;;;;;;5.07;3.63;;;14.80;99.90;;;;;;4985322;28;20163;-67
2021/09/19 03:53:52;;;;;;;3.67;3.10;;;14.90;99.90;;;;;;4985054;28;20169;-67
2021/09/19 03:56:19;;;;;;;6.05;3.30;;;14.80;99.90;;;;;;4991042;28;20039;-67
2021/09/19 03:58:45;;;;;;;4.45;3.10;;;14.80;99.90;;;;;;4993332;28;20042;-67
2021/09/19 04:01:10;;;;;;;3.97;3.65;;;14.80;99.90;;;;;;4993578;28;20034;-67
2021/09/19 04:03:36;;;;;;;4.47;3.28;;;14.80;99.90;;;;;;4993245;28;20480;-67
2021/09/19 04:06:02;;;;;;;9.73;3.67;;;14.80;99.90;;;;;;4992825;28;20034;-67
2021/09/19 04:08:27;;;;;;;4.43;3.67;;;14.80;99.90;;;;;;4993549;28;20125;-67
2021/09/19 04:10:53;;;;;;;4.78;3.60;;;14.80;99.90;;;;;;4992937;28;20046;-67
2021/09/19 04:13:18;;;;;;;5.43;3.83;;;14.80;99.90;;;;;;4993246;28;20100;-67
2021/09/19 04:15:44;;;;;;;4.55;3.97;;;14.80;99.90;;;;;;4993120;28;20042;-67
2021/09/19 04:18:10;;;;;;;4.30;3.83;;;14.80;99.90;;;;;;4993537;28;20042;-67
2021/09/19 04:20:35;;;;;;;7.47;3.45;;;14.70;99.90;;;;;;4992806;28;20078;-67
2021/09/19 04:23:01;;;;;;;5.65;3.83;;;14.70;99.90;;;;;;4994043;28;20038;-67
2021/09/19 04:25:27;;;;;;;7.47;4.18;;;14.80;99.90;;;;;;4992036;28;20046;-67
2021/09/19 04:27:53;;;;;;;6.90;4.57;;;14.80;99.90;;;;;;4991724;28;20511;-67
2021/09/19 04:30:18;;;;;;;6.68;3.50;;;14.80;99.90;;;;;;4991979;28;20515;-67
2021/09/19 04:32:44;;;;;;;6.05;4.47;;;14.80;99.90;;;;;;4992776;28;20042;-66
2021/09/19 04:35:11;;;;;;;5.38;4.07;;;14.80;99.90;;;;;;4992267;28;20968;-66
2021/09/19 04:37:36;;;;;;;7.00;3.83;;;14.70;99.90;;;;;;4990212;28;20064;-66
2021/09/19 04:40:04;;;;;;;4.88;4.40;;;14.70;99.90;;;;;;4991089;28;20489;-66
2021/09/19 04:42:30;;;;;;;8.07;4.40;;;14.70;99.90;;;;;;4993734;28;20074;-66
2021/09/19 04:44:55;;;;;;;6.97;4.13;;;14.70;99.90;;;;;;4990525;28;20070;-66
2021/09/19 04:47:21;;;;;;;4.32;3.85;;;14.60;99.90;;;;;;4993726;28;20657;-66
2021/09/19 04:49:46;;;;;;;6.40;4.28;;;14.60;99.90;;;;;;4989811;28;20042;-66
2021/09/19 04:52:12;;;;;;;5.13;3.72;;;14.60;99.90;;;;;;4991418;28;20044;-66
2021/09/19 04:54:38;;;;;;;4.38;3.40;;;14.60;99.90;;;;;;4993579;28;20539;-67
2021/09/19 04:57:03;;;;;;;4.65;3.42;;;14.50;99.90;;;;;;4990512;28;20120;-67
2021/09/19 04:59:29;;;;;;;4.70;3.85;;;14.50;99.90;;;;;;4991491;28;20046;-67
2021/09/19 05:01:55;;;;;;;6.53;3.55;;;14.50;99.90;;;;;;4993000;28;20041;-67
2021/09/19 05:04:20;;;;;;;6.50;3.78;;;14.40;99.90;;;;;;4990437;28;20600;-67
2021/09/19 05:06:46;;;;;;;6.10;3.40;;;14.40;99.90;;;;;;4987819;28;20049;-67
2021/09/19 05:09:12;;;;;;;6.05;3.67;;;14.40;99.90;;;;;;4985954;28;20038;-67
2021/09/19 05:11:37;;;;;;;7.90;4.10;;;14.30;99.90;;;;;;4986608;28;20085;-67
2021/09/19 05:14:04;;;;;;;6.53;3.75;;;14.20;99.90;;;;;;4983742;28;20416;-66
2021/09/19 05:16:30;;;;;;;4.65;3.22;;;14.30;99.90;;;;;;4986366;28;21584;-66
2021/09/19 05:18:57;;;;;;;7.75;3.38;;;14.20;99.90;;;;;;4986389;28;20038;-66
2021/09/19 05:21:23;;;;;;;4.38;3.42;;;14.20;99.90;;;;;;4985532;28;20038;-66
2021/09/19 05:23:49;;;;;;;4.93;3.50;;;14.20;99.90;;;;;;4985632;28;20046;-67
2021/09/19 05:26:14;;;;;;;7.07;4.43;;;14.10;99.90;;;;;;4986851;28;20381;-67
2021/09/19 05:28:40;;;;;;;8.57;4.30;;;14.10;99.90;;;;;;4986615;28;20165;-67
2021/09/19 05:31:06;;;;;;;4.95;3.33;;;14.00;99.90;;;;;;4984509;28;20133;-67
2021/09/19 05:33:31;;;;;;;6.75;4.22;;;13.90;99.90;;;;;;4990684;28;20046;-67
2021/09/19 05:35:57;;;;;;;12.43;3.35;;;13.90;99.90;;;;;;4987963;28;20473;-67
2021/09/19 05:38:23;;;;;;;6.15;3.90;;;13.80;99.90;;;;;;4988990;28;20041;-67
2021/09/19 05:40:48;;;;;;;6.28;3.85;;;13.80;99.90;;;;;;4988923;28;20030;-66
2021/09/19 05:43:14;;;;;;;7.28;4.30;;;13.70;99.90;;;;;;4987797;28;20117;-67
2021/09/19 05:45:40;;;;;;;6.57;3.85;;;13.70;99.90;;;;;;4985050;28;20066;-67
2021/09/19 05:48:06;;;;;;;6.55;3.65;;;13.70;99.90;;;;;;4984177;28;20046;-66
2021/09/19 05:50:32;;;;;;;7.18;4.15;;;13.70;99.90;;;;;;4986337;28;20628;-66
2021/09/19 05:52:57;;;;;;;6.57;4.40;;;13.80;99.90;;;;;;4984989;28;20043;-66
2021/09/19 05:55:23;;;;;;;9.40;4.03;;;13.60;99.90;;;;;;4985715;28;20065;-66
2021/09/19 05:57:49;;;;;;;6.70;3.90;;;13.50;99.90;;;;;;4984858;28;20515;-66
2021/09/19 06:00:15;;;;;;;6.03;3.90;;;13.50;99.90;;;;;;4983552;28;20141;-66
2021/09/19 06:02:40;;;;;;;5.40;4.50;;;13.50;99.90;;;;;;4985922;28;20053;-67
2021/09/19 06:05:06;;;;;;;8.82;4.78;;;13.50;99.90;;;;;;4985723;28;20042;-67
2021/09/19 06:07:32;;;;;;;6.30;4.20;;;13.50;99.90;;;;;;4986097;28;20066;-67
2021/09/19 06:09:58;;;;;;;4.90;4.15;;;13.50;99.90;;;;;;4986768;28;20498;-67
2021/09/19 06:12:23;;;;;;;5.28;4.57;;;13.50;99.90;;;;;;4986652;28;20039;-67
2021/09/19 06:14:49;;;;;;;6.25;4.80;;;13.50;99.90;;;;;;4984469;28;20038;-67
2021/09/19 06:17:16;;;;;;;8.57;5.63;;;13.50;99.90;;;;;;4984374;28;20042;-66
2021/09/19 06:19:42;;;;;;;6.55;5.05;;;13.40;99.90;;;;;;4984079;28;20396;-66
2021/09/19 06:22:08;;;;;;;6.78;5.47;;;13.40;99.90;;;;;;4983203;28;20058;-66
2021/09/19 06:24:33;;;;;;;8.95;4.70;;;13.40;99.90;;;;;;4985326;28;20038;-66
2021/09/19 06:27:00;;;;;;;5.63;4.97;;;13.40;99.90;;;;;;4984073;28;20039;-66
2021/09/19 06:29:27;;;;;;;9.35;4.65;;;13.40;99.90;;;;;;4984747;28;20038;-66
2021/09/19 06:31:53;;;;;;;10.07;4.80;;;13.50;99.90;;;;;;4988699;28;20030;-66
2021/09/19 06:34:19;;;;;;;7.07;4.88;;;13.50;99.90;;;;;;4987575;28;20046;-67
2021/09/19 06:36:44;;;;;;;5.97;4.95;;;13.50;99.90;;;;;;4985387;28;20042;-67
2021/09/19 06:39:10;;;;;;;6.38;4.45;;;13.50;99.90;;;;;;4970205;28;20073;-67
2021/09/19 06:41:36;;;;;;;5.30;4.80;;;13.50;99.90;;;;;;4985307;28;20100;-67
2021/09/19 06:44:02;;;;;;;8.30;5.10;;;13.60;99.90;;;;;;4999178;28;20042;-70
2021/09/19 06:46:31;;;;;;;6.25;5.05;;;13.60;99.90;;;;;;4984741;28;20133;-67
2021/09/19 06:49:02;;;;;;;7.05;4.80;;;13.70;99.90;;;;;;4983027;28;20046;-67
2021/09/19 06:51:28;;;;;;;7.18;4.97;;;13.60;99.90;;;;;;4985216;28;20088;-67
2021/09/19 06:53:54;;;;;;;8.20;5.53;;;13.70;99.90;;;;;;4982793;28;20046;-67
2021/09/19 06:56:21;;;;;;;9.30;5.90;;;13.80;99.90;;;;;;4983018;28;20069;-67
2021/09/19 06:58:48;;;;;;;13.00;5.53;;;13.80;99.90;;;;;;4982071;28;20236;-67
2021/09/19 07:01:15;;;;;;;7.55;5.57;;;13.80;99.90;;;;;;4983222;28;20068;-67
2021/09/19 07:03:43;;;;;;;7.60;5.05;;;13.80;99.90;;;;;;4985491;28;20050;-67
2021/09/19 07:06:09;;;;;;;11.10;4.90;;;13.80;99.90;;;;;;4984374;28;20061;-67
2021/09/19 07:08:35;;;;;;;6.43;4.97;;;13.80;99.90;;;;;;4984613;28;20046;-67
2021/09/19 07:11:01;;;;;;;8.02;5.82;;;13.90;99.90;;;;;;4983781;28;20042;-67
2021/09/19 07:13:26;;;;;;;9.05;5.45;;;13.90;99.90;;;;;;4983728;28;20104;-67
2021/09/19 07:15:53;;;;;;;7.70;5.35;;;14.00;99.90;;;;;;4985383;28;20034;-67
2021/09/19 07:18:23;;;;;;;9.20;5.63;;;14.00;99.90;;;;;;4982307;28;20613;-67
2021/09/19 07:20:52;;;;;;;6.95;5.68;;;14.00;99.90;;;;;;4981287;28;20038;-67
2021/09/19 07:23:18;;;;;;;8.57;6.22;;;14.10;99.90;;;;;;4995434;28;20077;-67
2021/09/19 07:25:44;;;;;;;9.10;5.82;;;14.10;99.90;;;;;;4983941;28;20116;-67
2021/09/19 07:28:10;;;;;;;5.55;5.05;;;14.10;99.90;;;;;;4982984;28;20053;-67
2021/09/19 07:30:36;;;;;;;8.35;5.93;;;14.10;99.90;;;;;;4982297;28;20799;-67
2021/09/19 07:33:02;;;;;;;8.85;5.32;;;14.20;99.90;;;;;;4965334;28;20053;-67
2021/09/19 07:35:28;;;;;;;6.30;5.43;;;14.30;99.90;;;;;;4982972;28;20050;-67
2021/09/19 07:37:54;;;;;;;6.78;5.50;;;14.30;99.90;;;;;;4981078;28;20476;-67
2021/09/19 07:40:21;;;;;;;8.20;6.30;;;14.40;99.90;;;;;;4983864;28;20069;-67
2021/09/19 07:42:47;;;;;;;9.40;5.90;;;14.50;99.90;;;;;;4984956;28;20034;-67
2021/09/19 07:45:13;;;;;;;8.55;6.10;;;14.50;99.90;;;;;;4983607;28;20049;-67
2021/09/19 07:47:40;;;;;;;7.15;5.97;;;14.50;99.90;;;;;;4983647;28;20079;-67
2021/09/19 07:50:07;;;;;;;7.32;6.22;;;14.60;99.90;;;;;;4981501;28;20734;-67
2021/09/19 07:52:33;;;;;;;9.30;5.90;;;14.60;99.90;;;;;;4985710;28;20065;-67
2021/09/19 07:54:59;;;;;;;7.50;5.47;;;14.70;99.90;;;;;;4985841;28;20030;-67
2021/09/19 07:57:25;;;;;;;6.97;5.68;;;14.90;99.90;;;;;;4983440;28;20125;-67
2021/09/19 07:59:52;;;;;;;9.90;7.40;;;14.80;99.90;;;;;;4987203;28;20480;-67
2021/09/19 08:02:19;;;;;;;6.68;5.10;;;14.80;99.90;;;;;;4987803;28;20045;-67
2021/09/19 08:04:44;;;;;;;7.32;5.45;;;14.90;99.90;;;;;;4987664;28;20477;-67
2021/09/19 08:07:10;;;;;;;7.05;5.85;;;15.00;99.90;;;;;;4989108;28;20042;-67
2021/09/19 08:09:36;;;;;;;7.65;5.57;;;15.00;99.90;;;;;;4987502;28;20133;-67
2021/09/19 08:12:03;;;;;;;6.47;5.07;;;15.10;99.90;;;;;;4986148;28;20084;-67
2021/09/19 08:14:28;;;;;;;8.27;5.40;;;15.10;99.90;;;;;;4985950;28;20046;-67
2021/09/19 08:16:55;;;;;;;7.75;5.97;;;15.30;99.90;;;;;;4985755;28;20044;-67
2021/09/19 08:19:21;;;;;;;7.28;5.53;;;15.40;99.90;;;;;;4979673;28;20034;-68
2021/09/19 08:21:48;;;;;;;9.13;5.47;;;15.50;99.90;;;;;;4981338;28;20500;-68
2021/09/19 08:24:13;;;;;;;6.47;5.88;;;15.50;99.90;;;;;;4985286;28;20046;-67
2021/09/19 08:26:41;;;;;;;9.65;5.45;;;15.50;99.90;;;;;;4985346;28;20048;-67
2021/09/19 08:29:08;;;;;;;6.25;5.65;;;15.60;99.90;;;;;;4984407;28;20042;-67
2021/09/19 08:31:34;;;;;;;7.30;5.15;;;15.70;99.90;;;;;;4982275;28;20038;-67
2021/09/19 08:34:00;;;;;;;7.38;5.20;;;15.80;99.90;;;;;;4982664;28;20128;-67
2021/09/19 08:36:26;;;;;;;8.50;4.95;;;15.90;99.90;;;;;;4980149;28;20399;-67
2021/09/19 08:38:54;;;;;;;7.22;4.85;;;15.90;99.90;;;;;;4981242;28;20038;-67
2021/09/19 08:41:20;;;;;;;7.35;5.38;;;16.10;99.90;;;;;;4982838;28;20670;-67
2021/09/19 08:43:47;;;;;;;6.07;5.07;;;16.30;99.90;;;;;;4997821;28;20797;-67
2021/09/19 08:46:15;;;;;;;9.90;5.20;;;16.40;99.90;;;;;;4988132;28;20129;-67
2021/09/19 08:48:41;;;;;;;5.25;4.75;;;16.50;99.90;;;;;;4988268;28;20467;-67
2021/09/19 08:51:06;;;;;;;7.90;5.28;;;16.60;99.90;;;;;;4987193;28;20038;-67
2021/09/19 08:53:32;;;;;;;6.03;4.57;;;16.70;99.90;;;;;;4986644;28;20516;-67
2021/09/19 08:55:58;;;;;;;6.45;5.15;;;16.70;99.90;;;;;;4986314;28;20089;-67
2021/09/19 08:58:25;;;;;;;9.65;5.80;;;16.70;99.90;;;;;;4985125;28;20408;-67
2021/09/19 09:00:51;;;;;;;5.35;4.28;;;16.70;99.90;;;;;;4987726;28;20531;-67
2021/09/19 09:03:20;;;;;;;6.88;4.85;;;16.70;99.90;;;;;;4987881;28;20050;-67
2021/09/19 09:05:56;;;;;;;10.25;4.60;;;16.70;99.90;;;;;;4987196;28;20042;-67
2021/09/19 09:08:22;;;;;;;5.32;4.28;;;16.80;99.90;;;;;;4987081;28;20215;-67
2021/09/19 09:10:50;;;;;;;8.25;5.60;;;16.80;99.90;;;;;;4987474;28;20034;-67
2021/09/19 09:13:20;;;;;;;6.82;4.68;;;16.90;99.90;;;;;;4987909;28;20169;-68
2021/09/19 09:16:05;;;;;;;6.40;4.32;;;17.00;99.90;;;;;;4987842;28;20035;-68
2021/09/19 09:18:37;;;;;;;5.43;4.15;;;17.00;99.90;;;;;;4986239;28;21057;-68
2021/09/19 09:21:14;;;;;;;8.02;5.13;;;17.10;99.90;;;;;;4987215;28;20046;-68
2021/09/19 09:23:45;;;;;;;5.10;4.50;;;17.20;99.90;;;;;;4985931;28;20088;-68
2021/09/19 09:26:34;;;;;;;6.53;4.45;;;17.30;99.90;;;;;;4988041;28;20072;-68
2021/09/19 09:29:09;;;;;;;5.93;4.13;;;17.50;99.90;;;;;;4986034;28;20046;-67
2021/09/19 09:31:42;;;;;;;4.82;4.10;;;17.60;99.90;;;;;;4988117;28;20049;-68
2021/09/19 09:34:28;;;;;;;4.88;4.35;;;17.60;99.90;;;;;;4988915;28;20046;-68
2021/09/19 09:37:05;;;;;;;8.77;4.18;;;17.60;99.90;;;;;;4985667;28;20083;-68
2021/09/19 09:39:39;;;;;;;4.28;3.88;;;17.60;99.90;;;;;;4986757;28;20038;-68
2021/09/19 09:42:09;;;;;;;5.72;4.28;;;17.80;99.90;;;;;;4988011;28;20046;-68
2021/09/19 09:44:38;;;;;;;6.65;4.70;;;17.90;99.90;;;;;;4989519;28;20088;-68
2021/09/19 09:47:24;;;;;;;8.40;4.53;;;17.80;99.90;;;;;;4988925;28;21532;-68
2021/09/19 09:50:03;;;;;;;5.88;4.68;;;17.90;99.90;;;;;;4987357;28;20053;-68
2021/09/19 09:52:34;;;;;;;5.20;3.83;;;17.90;99.90;;;;;;4988180;28;20066;-67
2021/09/19 09:55:04;;;;;;;4.97;4.53;;;17.80;99.90;;;;;;4988735;28;20075;-67
2021/09/19 09:57:36;;;;;;;4.78;4.35;;;18.00;99.90;;;;;;4988918;28;20038;-67
2021/09/19 10:00:19;;;;;;;5.45;4.35;;;18.20;99.90;;;;;;4989507;28;20451;-68
2021/09/19 10:02:48;;;;;;;4.30;3.92;;;18.30;99.90;;;;;;4988872;28;20042;-68
2021/09/19 10:05:15;;;;;;;10.82;4.53;;;18.40;99.90;;;;;;5000780;28;20054;-68
2021/09/19 10:07:42;;;;;;;5.82;4.50;;;18.40;99.90;;;;;;4986584;28;20042;-68
2021/09/19 10:10:11;;;;;;;6.63;3.80;;;18.40;99.90;;;;;;4986181;28;20085;-68
2021/09/19 10:12:37;;;;;;;5.85;3.53;;;18.50;99.90;;;;;;4988922;28;20050;-68
2021/09/19 10:15:05;;;;;;;5.75;3.08;;;18.70;99.90;;;;;;4987242;28;20128;-68
2021/09/19 10:17:31;;;;;;;5.30;3.15;;;18.90;99.90;;;;;;4988694;28;20066;-68
2021/09/19 10:19:57;;;;;;;5.80;2.88;;;18.90;99.90;;;;;;4989303;28;20085;-68
2021/09/19 10:22:51;;;;;;;5.25;3.20;;;19.00;99.90;;;;;;4987182;28;20133;-68
2021/09/19 10:25:42;;;;;;;4.80;3.47;;;18.90;99.90;;;;;;4988449;28;20039;-67
2021/09/19 10:28:39;;;;;;;3.90;3.58;;;18.80;99.90;;;;;;4987928;28;20062;-67
2021/09/19 10:31:08;;;;;;;7.85;3.38;;;18.80;99.90;;;;;;4983453;28;20050;-67
2021/09/19 10:33:37;;;;;;;5.32;2.97;;;18.80;99.90;;;;;;4989496;28;20051;-67
2021/09/19 10:36:11;;;;;;;5.85;2.60;;;18.80;99.90;;;;;;4987007;28;20050;-68
2021/09/19 10:38:39;;;;;;;5.57;3.13;;;18.90;99.90;;;;;;4988983;28;20054;-68
2021/09/19 10:41:16;;;;;;;4.55;3.15;;;19.00;99.90;;;;;;4988348;28;20129;-68
2021/09/19 10:43:52;;;;;;;3.42;2.72;;;18.90;99.90;;;;;;4984198;28;20054;-68
2021/09/19 10:46:36;;;;;;;4.32;3.05;;;18.80;99.90;;;;;;4987931;28;20030;-68
2021/09/19 10:49:12;;;;;;;5.47;3.30;;;18.90;99.90;;;;;;4987596;28;20618;-68
2021/09/19 10:51:59;;;;;;;5.85;3.55;;;19.10;99.90;;;;;;4986377;28;20046;-68
2021/09/19 10:54:44;;;;;;;6.28;3.22;;;19.10;99.90;;;;;;4986678;28;20113;-67
2021/09/19 10:57:21;;;;;;;8.85;4.10;;;19.10;99.90;;;;;;4987728;28;20073;-67
2021/09/19 11:00:20;;;;;;;5.75;3.38;;;19.20;99.90;;;;;;4985933;28;20034;-68
2021/09/19 11:03:06;;;;;;;4.07;2.67;;;19.50;99.90;;;;;;4996984;28;20086;-68
2021/09/19 11:05:49;;;;;;;7.63;2.92;;;19.60;99.90;;;;;;4985877;28;20046;-68
2021/09/19 11:08:16;;;;;;;3.58;2.72;;;19.80;99.90;;;;;;4988210;28;20046;-68
2021/09/19 11:10:55;;;;;;;6.80;2.78;;;19.70;99.90;;;;;;4987152;28;20072;-68
2021/09/19 11:13:28;;;;;;;4.32;2.45;;;19.80;99.90;;;;;;4986852;28;20054;-68
2021/09/19 11:16:03;;;;;;;4.75;3.17;;;19.70;99.90;;;;;;5002731;28;20124;-67
2021/09/19 11:18:40;;;;;;;3.97;2.85;;;19.80;99.90;;;;;;4984250;28;20042;-67
2021/09/19 11:21:21;;;;;;;5.28;3.00;;;19.60;99.90;;;;;;4984666;28;20042;-67
2021/09/19 11:24:01;;;;;;;4.15;3.30;;;19.70;99.90;;;;;;4986022;28;20081;-68
2021/09/19 11:26:33;;;;;;;6.57;3.47;;;19.70;99.90;;;;;;4984421;28;20053;-68
2021/09/19 11:29:03;;;;;;;5.43;3.10;;;19.60;99.90;;;;;;4987354;28;20624;-67
2021/09/19 11:31:29;;;;;;;8.57;3.55;;;19.70;99.90;;;;;;4984240;28;20125;-67
2021/09/19 11:33:58;;;;;;;5.07;3.33;;;19.90;99.90;;;;;;4983474;28;20141;-67
2021/09/19 11:36:24;;;;;;;3.72;3.30;;;20.00;99.90;;;;;;4985763;28;20034;-67
2021/09/19 11:38:52;;;;;;;11.55;3.35;;;19.90;99.90;;;;;;4987404;28;20042;-67
2021/09/19 11:41:19;;;;;;;4.80;3.25;;;19.80;99.90;;;;;;4987925;28;20579;-67
2021/09/19 11:43:46;;;;;;;6.63;3.50;;;19.80;99.90;;;;;;4984529;28;20117;-68
2021/09/19 11:46:15;;;;;;;3.78;2.85;;;19.70;99.90;;;;;;4985087;28;20100;-68
2021/09/19 11:48:41;;;;;;;4.88;2.95;;;19.50;99.90;;;;;;4987333;28;20503;-67
2021/09/19 11:51:09;;;;;;;6.25;2.65;;;19.40;99.90;;;;;;4983098;28;20097;-67
2021/09/19 11:53:35;;;;;;;4.80;2.42;;;19.30;99.90;;;;;;4984101;28;20101;-67
2021/09/19 11:56:03;;;;;;;4.50;2.30;;;19.10;99.90;;;;;;4981883;28;20042;-67
2021/09/19 11:58:29;;;;;;;5.60;2.33;;;19.10;99.90;;;;;;4982599;28;20030;-67
2021/09/19 12:01:00;;;;;;;3.97;2.55;;;19.00;99.90;;;;;;4982098;28;20038;-67
2021/09/19 12:03:27;;;;;;;4.68;2.58;;;19.10;99.90;;;;;;4984339;28;20278;-67
2021/09/19 12:06:00;;;;;;;4.05;2.85;;;19.30;99.90;;;;;;4982525;28;20503;-67
2021/09/19 12:08:30;;;;;;;3.17;2.30;;;19.40;99.90;;;;;;4984205;28;20042;-67
2021/09/19 12:10:58;;;;;;;7.10;2.72;;;19.50;99.90;;;;;;4982737;28;20042;-67
2021/09/19 12:13:27;;;;;;;2.85;2.58;;;19.50;99.90;;;;;;4982973;28;20046;-67
2021/09/19 12:16:11;;;;;;;3.08;2.65;;;19.70;99.90;;;;;;4983428;28;20439;-67
2021/09/19 12:18:42;;;;;;;4.32;2.38;;;19.80;99.90;;;;;;4987921;28;20046;-67
2021/09/19 12:21:11;;;;;;;5.45;2.63;;;19.80;99.90;;;;;;4988154;28;20057;-67
2021/09/19 12:23:46;;;;;;;2.40;2.03;;;19.80;99.90;;;;;;4986748;28;20053;-67
2021/09/19 12:26:13;;;;;;;;;;;19.70;99.90;;;;;;4987719;28;20141;-67
2021/09/19 12:28:42;;;;;;;2.33;1.98;;;19.50;99.90;;;;;;4985809;28;19917;-67
2021/09/19 12:31:08;;;;;;;4.68;3.03;;;19.30;99.90;;;;;;4986215;28;20042;-67
2021/09/19 12:33:49;;;;;;;5.25;2.30;;;19.20;99.90;;;;;;4986683;28;20057;-67
2021/09/19 12:36:15;;;;;;;4.28;2.13;;;19.10;99.90;;;;;;4986579;28;20088;-67
2021/09/19 12:38:45;;;;;;;3.83;2.50;;;18.90;99.90;;;;;;4988542;28;20042;-67
2021/09/19 12:41:13;;;;;;;2.65;2.13;;;18.90;99.90;;;;;;4985245;28;20567;-67
2021/09/19 12:43:42;;;;;;;5.72;2.38;;;18.90;99.90;;;;;;4986300;28;20415;-67
2021/09/19 12:46:11;;;;;;;2.63;2.22;;;18.90;99.90;;;;;;4988157;28;20388;-66
2021/09/19 12:48:36;;;;;;;3.33;2.42;;;18.90;99.90;;;;;;4987671;28;20604;-67
2021/09/19 12:51:03;;;;;;;5.57;2.35;;;18.80;99.90;;;;;;4987650;28;20054;-67
2021/09/19 12:53:34;;;;;;;3.85;2.22;;;18.80;99.90;;;;;;4986980;28;20050;-67